createdAt,value
2022-10-09T00:00:42.116Z,10.40
2022-10-09T00:03:08.719Z,8.15
2022-10-09T00:05:35.502Z,11.40
2022-10-09T00:08:02.219Z,10.48
2022-10-09T00:10:28.994Z,10.52
2022-10-09T00:12:55.876Z,9.25
2022-10-09T00:15:22.526Z,10.65
2022-10-09T00:17:49.607Z,9.15
2022-10-09T00:20:16.282Z,11.07
2022-10-09T00:22:46.024Z,9.88
2022-10-09T00:25:14.890Z,11.15
2022-10-09T00:27:41.425Z,10.30
2022-10-09T00:30:08.766Z,9.85
2022-10-09T00:32:35.337Z,8.93
2022-10-09T00:35:01.890Z,9.25
2022-10-09T00:37:28.818Z,9.73
2022-10-09T00:39:55.393Z,9.23
2022-10-09T00:42:22.030Z,9.75
2022-10-09T00:45:00.379Z,10.40
2022-10-09T00:47:34.319Z,9.57
2022-10-09T00:50:12.082Z,10.55
2022-10-09T00:52:38.902Z,11.13
2022-10-09T00:55:07.680Z,11.75
2022-10-09T00:57:35.016Z,9.23
2022-10-09T01:00:04.895Z,10.32
2022-10-09T01:02:31.510Z,9.55
2022-10-09T01:04:58.086Z,10.00
2022-10-09T01:07:53.981Z,10.27
2022-10-09T01:10:41.771Z,9.77
2022-10-09T01:13:17.324Z,9.73
2022-10-09T01:15:54.897Z,10.20
2022-10-09T01:18:29.591Z,10.15
2022-10-09T01:21:02.801Z,9.73
2022-10-09T01:24:03.492Z,8.15
2022-10-09T01:26:45.176Z,9.40
2022-10-09T01:29:13.429Z,12.00
2022-10-09T01:31:46.834Z,9.70
2022-10-09T01:34:16.281Z,9.38
2022-10-09T01:36:44.512Z,10.80
2022-10-09T01:39:16.475Z,8.23
2022-10-09T01:41:43.667Z,10.93
2022-10-09T01:44:26.762Z,10.38
2022-10-09T01:46:53.516Z,7.88
2022-10-09T01:49:23.191Z,11.05
2022-10-09T01:52:27.289Z,10.45
2022-10-09T01:55:18.055Z,8.25
2022-10-09T01:58:26.076Z,11.18
2022-10-09T02:01:07.742Z,8.80
2022-10-09T02:03:36.414Z,8.63
2022-10-09T02:06:05.940Z,10.25
2022-10-09T02:08:34.961Z,9.23
2022-10-09T02:11:05.269Z,9.98
2022-10-09T02:13:33.943Z,10.50
2022-10-09T02:16:27.441Z,8.63
2022-10-09T02:19:21.272Z,10.75
2022-10-09T02:21:54.410Z,10.85
2022-10-09T02:24:23.165Z,10.52
2022-10-09T02:26:52.926Z,10.05
2022-10-09T02:29:19.923Z,10.85
2022-10-09T02:31:46.960Z,10.95
2022-10-09T02:34:17.709Z,8.50
2022-10-09T02:36:44.301Z,9.82
2022-10-09T02:39:10.991Z,9.07
2022-10-09T02:41:38.131Z,10.00
2022-10-09T02:44:05.993Z,10.35
2022-10-09T02:46:33.993Z,9.27
2022-10-09T02:49:00.720Z,10.88
2022-10-09T02:51:27.262Z,9.50
2022-10-09T02:53:54.725Z,9.48
2022-10-09T02:56:22.894Z,9.57
2022-10-09T02:58:49.929Z,10.43
2022-10-09T03:01:16.513Z,9.48
2022-10-09T03:03:43.712Z,9.57
2022-10-09T03:06:13.743Z,8.95
2022-10-09T03:08:42.971Z,9.82
2022-10-09T03:11:10.841Z,10.38
2022-10-09T03:13:39.605Z,10.93
2022-10-09T03:16:08.793Z,9.48
2022-10-09T03:18:36.581Z,9.10
2022-10-09T03:21:11.318Z,10.98
2022-10-09T03:23:38.081Z,11.18
2022-10-09T03:26:08.255Z,9.15
2022-10-09T03:28:43.373Z,8.45
2022-10-09T03:31:22.365Z,10.37
2022-10-09T03:33:57.503Z,10.07
2022-10-09T03:36:24.043Z,9.63
2022-10-09T03:38:50.859Z,9.02
2022-10-09T03:41:17.411Z,8.48
2022-10-09T03:43:43.999Z,8.63
2022-10-09T03:46:10.953Z,10.20
2022-10-09T03:48:38.141Z,9.02
2022-10-09T03:51:04.796Z,10.07
2022-10-09T03:53:31.616Z,8.00
2022-10-09T03:55:58.188Z,10.10
2022-10-09T03:58:25.174Z,9.02
2022-10-09T04:00:52.801Z,11.13
2022-10-09T04:03:20.471Z,9.55
2022-10-09T04:05:47.237Z,9.10
2022-10-09T04:08:13.957Z,11.75
2022-10-09T04:10:40.595Z,10.25
2022-10-09T04:13:07.419Z,11.38
2022-10-09T04:15:35.242Z,10.38
2022-10-09T04:18:01.840Z,8.68
2022-10-09T04:20:28.366Z,10.35
2022-10-09T04:22:54.937Z,10.30
2022-10-09T04:25:21.680Z,10.55
2022-10-09T04:27:48.216Z,11.65
2022-10-09T04:30:14.846Z,11.10
2022-10-09T04:32:41.423Z,9.65
2022-10-09T04:35:08.400Z,9.73
2022-10-09T04:37:36.703Z,9.27
2022-10-09T04:40:04.015Z,9.85
2022-10-09T04:42:30.571Z,10.02
2022-10-09T04:44:57.094Z,12.27
2022-10-09T04:47:23.797Z,10.75
2022-10-09T04:49:50.512Z,11.40
2022-10-09T04:52:17.055Z,13.23
2022-10-09T04:54:43.630Z,11.50
2022-10-09T04:57:10.215Z,11.15
2022-10-09T04:59:36.756Z,13.85
2022-10-09T05:02:04.012Z,12.55
2022-10-09T05:04:30.933Z,12.18
2022-10-09T05:06:57.462Z,11.23
2022-10-09T05:09:24.220Z,11.02
2022-10-09T05:11:50.783Z,13.70
2022-10-09T05:14:17.329Z,13.93
2022-10-09T05:17:08.543Z,11.20
2022-10-09T05:24:23.446Z,11.23
2022-10-09T05:26:50.212Z,11.70
2022-10-09T05:29:16.774Z,13.65
2022-10-09T05:31:48.379Z,13.20
2022-10-09T05:34:16.022Z,12.68
2022-10-09T05:36:42.675Z,11.30
2022-10-09T05:39:09.300Z,12.85
2022-10-09T05:41:35.854Z,12.05
2022-10-09T05:44:03.174Z,11.27
2022-10-09T05:46:30.300Z,13.18
2022-10-09T05:49:01.894Z,12.30
2022-10-09T05:51:33.707Z,12.52
2022-10-09T05:54:01.963Z,11.15
2022-10-09T05:56:38.771Z,11.27
2022-10-09T05:59:15.012Z,14.57
2022-10-09T06:01:44.000Z,12.38
2022-10-09T06:04:20.354Z,12.93
2022-10-09T06:06:48.608Z,11.18
2022-10-09T06:09:22.427Z,14.38
2022-10-09T06:11:51.037Z,14.68
2022-10-09T06:14:18.395Z,12.13
2022-10-09T06:16:45.614Z,14.93
2022-10-09T06:19:14.695Z,12.90
2022-10-09T06:21:42.196Z,11.57
2022-10-09T06:24:16.316Z,10.75
2022-10-09T06:26:42.890Z,14.02
2022-10-09T06:29:09.644Z,12.75
2022-10-09T06:31:36.211Z,11.95
2022-10-09T06:34:05.496Z,13.13
2022-10-09T06:36:34.862Z,12.93
2022-10-09T06:39:03.770Z,11.55
2022-10-09T06:41:30.329Z,11.23
2022-10-09T06:44:01.932Z,13.23
2022-10-09T06:46:31.720Z,11.45
2022-10-09T06:49:00.507Z,12.07
2022-10-09T06:51:30.912Z,10.98
2022-10-09T06:54:00.277Z,11.27
2022-10-09T06:56:29.432Z,13.00
2022-10-09T06:58:56.148Z,11.35
2022-10-09T07:01:26.999Z,10.57
2022-10-09T07:03:56.140Z,10.90
2022-10-09T07:06:25.029Z,9.77
2022-10-09T07:08:54.271Z,9.38
2022-10-09T07:11:43.279Z,10.10
2022-10-09T07:14:11.475Z,9.57
2022-10-09T07:16:41.605Z,8.85
2022-10-09T07:19:11.348Z,9.05
2022-10-09T07:21:43.521Z,7.85
2022-10-09T07:24:11.769Z,9.13
2022-10-09T07:26:40.642Z,6.05
2022-10-09T07:29:09.058Z,7.22
2022-10-09T07:31:35.713Z,7.18
2022-10-09T07:34:02.786Z,5.47
2022-10-09T07:36:29.577Z,6.68
2022-10-09T07:38:58.050Z,5.72
2022-10-09T07:41:27.556Z,5.60
2022-10-09T07:43:54.318Z,6.20
2022-10-09T07:46:22.983Z,5.30
2022-10-09T07:48:50.772Z,5.53
2022-10-09T07:51:20.222Z,5.60
2022-10-09T07:53:47.101Z,4.47
2022-10-09T07:56:15.662Z,5.03
2022-10-09T07:58:43.501Z,5.40
2022-10-09T08:01:10.499Z,4.22
2022-10-09T08:03:38.013Z,4.03
2022-10-09T08:06:05.188Z,4.30
2022-10-09T08:08:31.955Z,5.38
2022-10-09T08:10:58.627Z,5.32
2022-10-09T08:13:25.403Z,4.00
2022-10-09T08:15:52.199Z,4.72
2022-10-09T08:18:18.743Z,4.10
2022-10-09T08:20:45.414Z,5.10
2022-10-09T08:23:11.955Z,4.97
2022-10-09T08:25:38.535Z,3.65
2022-10-09T08:28:05.458Z,4.30
2022-10-09T08:30:32.085Z,6.80
2022-10-09T08:32:58.628Z,4.63
2022-10-09T08:35:25.257Z,4.13
2022-10-09T08:37:51.800Z,4.45
2022-10-09T08:40:43.759Z,4.05
2022-10-09T08:43:15.338Z,4.57
2022-10-09T08:45:44.581Z,3.78
2022-10-09T08:48:22.143Z,3.88
2022-10-09T08:50:53.785Z,4.10
2022-10-09T08:53:37.560Z,3.63
2022-10-09T08:56:06.594Z,4.93
2022-10-09T08:58:35.891Z,4.07
2022-10-09T09:01:14.532Z,4.07
2022-10-09T09:04:05.563Z,3.65
2022-10-09T09:06:57.414Z,3.80
2022-10-09T09:10:00.036Z,4.65
2022-10-09T09:12:44.246Z,3.10
2022-10-09T09:15:26.169Z,3.72
2022-10-09T09:18:34.662Z,4.32
2022-10-09T09:21:29.232Z,3.50
2022-10-09T09:23:58.751Z,4.32
2022-10-09T09:26:27.140Z,4.28
2022-10-09T09:29:01.284Z,3.58
2022-10-09T09:31:37.359Z,3.00
2022-10-09T09:34:15.271Z,4.60
2022-10-09T09:36:58.880Z,5.38
2022-10-09T09:42:19.902Z,4.70
2022-10-09T09:44:54.663Z,4.78
2022-10-09T09:47:32.887Z,5.05
2022-10-09T09:50:01.637Z,4.93
2022-10-09T09:52:37.562Z,4.30
2022-10-09T09:55:05.178Z,5.35
2022-10-09T09:57:39.866Z,3.45
2022-10-09T10:00:22.699Z,3.97
2022-10-09T10:02:50.546Z,5.13
2022-10-09T10:05:23.292Z,5.10
2022-10-09T10:07:51.455Z,5.20
2022-10-09T10:10:25.501Z,4.25
2022-10-09T10:12:52.704Z,4.22
2022-10-09T10:15:19.452Z,4.15
2022-10-09T10:17:48.474Z,4.65
2022-10-09T10:20:17.168Z,5.22
2022-10-09T10:22:51.606Z,6.82
2022-10-09T10:25:20.845Z,5.47
2022-10-09T10:27:51.085Z,4.53
2022-10-09T10:30:20.092Z,6.70
2022-10-09T10:32:55.602Z,7.40
2022-10-09T10:35:29.199Z,6.68
2022-10-09T10:38:06.314Z,7.50
2022-10-09T10:40:36.514Z,5.07
2022-10-09T10:43:15.207Z,6.72
2022-10-09T10:45:53.012Z,7.22
2022-10-09T10:48:45.562Z,7.80
2022-10-09T10:51:47.491Z,9.35
2022-10-09T10:54:51.255Z,6.55
2022-10-09T10:57:46.397Z,8.27
2022-10-09T11:00:14.441Z,7.93
2022-10-09T11:03:05.869Z,7.60
2022-10-09T11:05:38.639Z,6.95
2022-10-09T11:08:13.917Z,8.23
2022-10-09T11:10:46.780Z,8.52
2022-10-09T11:13:19.748Z,9.02
2022-10-09T11:15:55.261Z,8.23
2022-10-09T11:18:34.373Z,10.60
2022-10-09T11:21:12.208Z,12.07
2022-10-09T11:23:47.774Z,12.07
2022-10-09T11:26:41.373Z,11.75
2022-10-09T11:29:20.475Z,11.55
2022-10-09T11:31:59.814Z,11.13
2022-10-09T11:34:38.989Z,11.80
2022-10-09T11:37:12.765Z,14.48
2022-10-09T11:39:39.866Z,10.00
2022-10-09T11:42:10.106Z,12.23
2022-10-09T11:44:57.610Z,13.02
2022-10-09T11:47:52.635Z,10.38
2022-10-09T11:50:22.006Z,11.82
2022-10-09T11:53:01.412Z,14.27
2022-10-09T11:55:33.023Z,14.50
2022-10-09T11:58:23.492Z,13.10
2022-10-09T12:00:53.941Z,16.50
2022-10-09T12:03:42.452Z,12.82
2022-10-09T12:06:17.571Z,14.65
2022-10-09T12:08:57.920Z,14.43
2022-10-09T12:11:25.744Z,11.48
2022-10-09T12:13:55.350Z,12.20
2022-10-09T12:16:41.529Z,13.07
2022-10-09T12:19:38.877Z,15.45
2022-10-09T12:22:19.868Z,14.15
2022-10-09T12:24:50.277Z,9.27
2022-10-09T12:27:21.979Z,14.13
2022-10-09T12:29:54.895Z,13.88
2022-10-09T12:32:31.574Z,14.38
2022-10-09T12:34:58.803Z,17.67
2022-10-09T12:37:35.435Z,16.10
2022-10-09T12:40:16.447Z,16.90
2022-10-09T12:42:45.095Z,18.05
2022-10-09T12:45:30.425Z,17.23
2022-10-09T12:48:09.979Z,18.73
2022-10-09T12:50:36.744Z,17.25
2022-10-09T12:53:06.384Z,15.70
2022-10-09T12:55:35.479Z,20.98
2022-10-09T12:58:18.376Z,20.27
2022-10-09T13:00:48.472Z,19.75
2022-10-09T13:03:34.556Z,18.75
2022-10-09T13:06:03.660Z,20.95
2022-10-09T13:08:32.511Z,19.67
2022-10-09T13:11:18.039Z,19.08
2022-10-09T13:13:52.540Z,18.40
2022-10-09T13:16:19.854Z,16.00
2022-10-09T13:18:57.474Z,21.17
2022-10-09T13:21:29.128Z,19.20
2022-10-09T13:24:13.132Z,20.60
2022-10-09T13:26:42.707Z,19.58
2022-10-09T13:29:09.422Z,19.38
2022-10-09T13:31:37.054Z,18.00
2022-10-09T13:34:14.138Z,22.10
2022-10-09T13:36:40.718Z,19.55
2022-10-09T13:39:10.628Z,21.98
2022-10-09T13:41:37.352Z,18.80
2022-10-09T13:44:03.954Z,21.67
2022-10-09T13:46:30.599Z,20.48
2022-10-09T13:48:57.429Z,20.00
2022-10-09T13:51:24.027Z,22.33
2022-10-09T13:53:50.763Z,20.15
2022-10-09T13:56:17.472Z,20.77
2022-10-09T13:58:44.005Z,23.05
2022-10-09T14:01:10.799Z,22.15
2022-10-09T14:03:37.454Z,21.25
2022-10-09T14:06:04.458Z,21.95
2022-10-09T14:08:31.215Z,21.00
2022-10-09T14:11:01.023Z,20.13
2022-10-09T14:13:28.584Z,21.65
2022-10-09T14:15:55.620Z,20.52
2022-10-09T14:18:22.229Z,22.10
2022-10-09T14:20:48.805Z,19.70
2022-10-09T14:23:15.905Z,20.58
2022-10-09T14:25:42.720Z,21.13
2022-10-09T14:28:09.304Z,21.48
2022-10-09T14:30:40.313Z,19.35
2022-10-09T14:33:06.922Z,18.00
2022-10-09T14:35:33.667Z,19.38
2022-10-09T14:38:00.221Z,20.20
2022-10-09T14:40:26.978Z,18.25
2022-10-09T14:42:53.536Z,19.45
2022-10-09T14:45:20.084Z,17.88
2022-10-09T14:47:46.780Z,18.02
2022-10-09T14:50:14.194Z,21.10
2022-10-09T14:52:40.870Z,22.27
2022-10-09T14:55:08.100Z,19.10
2022-10-09T14:57:35.758Z,18.20
2022-10-09T15:00:05.216Z,17.23
2022-10-09T15:02:31.835Z,18.15
2022-10-09T15:04:58.404Z,17.20
2022-10-09T15:07:27.956Z,17.60
2022-10-09T15:09:55.024Z,17.58
2022-10-09T15:12:21.563Z,19.13
2022-10-09T15:14:48.108Z,17.17
2022-10-09T15:17:15.035Z,15.98
2022-10-09T15:19:41.579Z,17.35
2022-10-09T15:22:08.326Z,18.92
2022-10-09T15:24:34.878Z,20.88
2022-10-09T15:27:01.587Z,17.05
2022-10-09T15:29:28.151Z,17.48
2022-10-09T15:31:54.803Z,17.75
2022-10-09T15:34:21.445Z,16.63
2022-10-09T15:36:48.019Z,17.48
2022-10-09T15:39:15.419Z,18.50
2022-10-09T15:41:43.184Z,17.33
2022-10-09T15:44:27.758Z,23.10
2022-10-09T15:46:54.323Z,22.65
2022-10-09T15:49:20.867Z,21.67
2022-10-09T15:51:47.524Z,22.98
2022-10-09T15:54:15.303Z,24.63
2022-10-09T15:56:42.328Z,23.33
2022-10-09T15:59:13.634Z,20.08
2022-10-09T16:01:40.418Z,20.77
2022-10-09T16:04:06.990Z,23.00
2022-10-09T16:06:33.757Z,23.25
2022-10-09T16:09:01.195Z,27.23
2022-10-09T16:11:27.733Z,25.52
2022-10-09T16:13:55.277Z,25.60
2022-10-09T16:16:24.612Z,25.67
2022-10-09T16:18:51.784Z,22.42
2022-10-09T16:21:21.431Z,24.52
2022-10-09T16:23:47.969Z,24.77
2022-10-09T16:26:17.505Z,24.17
2022-10-09T16:28:45.160Z,23.65
2022-10-09T16:31:24.550Z,22.75
2022-10-09T16:33:51.943Z,21.33
2022-10-09T16:36:18.777Z,20.73
2022-10-09T16:38:46.007Z,17.52
2022-10-09T16:41:17.774Z,21.08
2022-10-09T16:43:46.101Z,21.20
2022-10-09T16:46:21.822Z,16.63
2022-10-09T16:48:49.760Z,18.92
2022-10-09T16:51:22.101Z,18.98
2022-10-09T16:53:53.447Z,20.05
2022-10-09T16:56:23.032Z,17.88
2022-10-09T16:58:54.324Z,19.92
2022-10-09T17:01:21.319Z,20.10
2022-10-09T17:03:47.887Z,18.85
2022-10-09T17:06:21.005Z,17.30
2022-10-09T17:08:48.123Z,18.83
2022-10-09T17:11:15.447Z,20.50
2022-10-09T17:13:42.183Z,22.98
2022-10-09T17:16:15.786Z,21.80
2022-10-09T17:21:12.868Z,20.17
2022-10-09T17:23:40.071Z,23.85
2022-10-09T17:26:11.842Z,19.27
2022-10-09T17:28:39.616Z,19.45
2022-10-09T17:31:08.592Z,20.83
2022-10-09T17:33:41.286Z,20.30
2022-10-09T17:36:08.959Z,16.80
2022-10-09T17:38:36.162Z,17.85
2022-10-09T17:41:08.146Z,16.80
2022-10-09T17:43:35.023Z,17.55
2022-10-09T17:46:01.775Z,18.15
2022-10-09T17:48:29.272Z,17.80
2022-10-09T17:50:57.821Z,14.95
2022-10-09T17:53:25.367Z,14.35
2022-10-09T17:55:57.180Z,12.68
2022-10-09T17:58:24.530Z,13.05
2022-10-09T18:00:51.582Z,15.90
2022-10-09T18:03:18.716Z,13.52
2022-10-09T18:05:47.927Z,11.60
2022-10-09T18:08:18.529Z,9.80
2022-10-09T18:10:45.982Z,9.82
2022-10-09T18:13:12.584Z,9.68
2022-10-09T18:15:44.029Z,9.52
2022-10-09T18:18:11.802Z,10.82
2022-10-09T18:20:39.860Z,9.13
2022-10-09T18:23:08.381Z,6.85
2022-10-09T18:25:40.129Z,6.65
2022-10-09T18:28:06.957Z,7.45
2022-10-09T18:30:34.088Z,5.72
2022-10-09T18:33:00.716Z,5.95
2022-10-09T18:35:27.383Z,6.75
2022-10-09T18:37:53.938Z,4.75
2022-10-09T18:40:20.542Z,4.93
2022-10-09T18:42:47.510Z,5.20
2022-10-09T18:45:16.187Z,4.45
2022-10-09T18:47:43.693Z,5.40
2022-10-09T18:50:13.007Z,4.47
2022-10-09T18:52:41.437Z,5.55
2022-10-09T18:55:11.100Z,3.72
2022-10-09T18:57:40.671Z,3.25
2022-10-09T19:00:08.184Z,4.38
2022-10-09T19:02:35.074Z,3.75
2022-10-09T19:05:01.723Z,3.78
2022-10-09T19:07:28.322Z,5.38
2022-10-09T19:09:57.352Z,5.13
2022-10-09T19:12:24.949Z,5.18
2022-10-09T19:14:52.012Z,5.25
2022-10-09T19:17:18.975Z,3.60
2022-10-09T19:19:45.577Z,3.63
2022-10-09T19:22:16.537Z,3.83
2022-10-09T19:24:44.949Z,3.95
2022-10-09T19:27:11.804Z,5.05
2022-10-09T19:29:38.509Z,5.15
2022-10-09T19:32:05.117Z,5.13
2022-10-09T19:34:33.019Z,5.93
2022-10-09T19:36:59.656Z,5.18
2022-10-09T19:39:26.317Z,5.05
2022-10-09T19:41:52.886Z,6.43
2022-10-09T19:44:19.593Z,5.57
2022-10-09T19:46:46.781Z,5.95
2022-10-09T19:49:13.652Z,5.45
2022-10-09T19:51:40.410Z,5.50
2022-10-09T19:54:08.310Z,5.85
2022-10-09T19:56:36.452Z,3.95
2022-10-09T19:59:05.978Z,4.80
2022-10-09T20:01:35.301Z,4.82
2022-10-09T20:04:05.459Z,4.63
2022-10-09T20:06:32.396Z,3.95
2022-10-09T20:08:59.180Z,3.30
2022-10-09T20:11:26.330Z,3.63
2022-10-09T20:13:56.001Z,3.70
2022-10-09T20:16:24.223Z,3.78
2022-10-09T20:18:50.810Z,3.80
2022-10-09T20:21:18.494Z,4.03
2022-10-09T20:23:45.361Z,3.60
2022-10-09T20:26:15.308Z,2.72
2022-10-09T20:28:42.559Z,3.38
2022-10-09T20:31:14.748Z,4.25
2022-10-09T20:33:42.304Z,4.28
2022-10-09T20:36:17.317Z,5.97
2022-10-09T20:38:43.900Z,6.10
2022-10-09T20:41:10.459Z,4.40
2022-10-09T20:43:37.813Z,3.85
2022-10-09T20:46:09.489Z,5.57
2022-10-09T20:48:36.703Z,4.43
2022-10-09T20:51:03.832Z,3.97
2022-10-09T20:53:30.504Z,3.78
2022-10-09T20:56:01.433Z,4.32
2022-10-09T20:58:28.550Z,2.97
2022-10-09T21:00:55.330Z,4.80
2022-10-09T21:03:22.026Z,3.80
2022-10-09T21:05:48.692Z,4.47
2022-10-09T21:08:15.322Z,3.95
2022-10-09T21:10:46.090Z,4.53
2022-10-09T21:13:13.540Z,3.92
2022-10-09T21:15:45.085Z,6.15
2022-10-09T21:18:12.807Z,5.70
2022-10-09T21:20:42.214Z,5.40
2022-10-09T21:23:09.777Z,6.50
2022-10-09T21:25:36.665Z,6.22
2022-10-09T21:28:04.299Z,5.70
2022-10-09T21:30:31.686Z,7.82
2022-10-09T21:32:58.214Z,6.70
2022-10-09T21:35:24.803Z,5.07
2022-10-09T21:37:51.501Z,5.18
2022-10-09T21:40:18.456Z,3.63
2022-10-09T21:42:45.069Z,4.93
2022-10-09T21:45:13.437Z,6.88
2022-10-09T21:47:40.088Z,5.38
2022-10-09T21:50:07.349Z,4.82
2022-10-09T21:52:33.900Z,4.22
2022-10-09T21:55:00.436Z,4.10
2022-10-09T21:57:27.027Z,5.53
2022-10-09T21:59:53.557Z,4.10
2022-10-09T22:02:20.243Z,4.30
2022-10-09T22:04:46.876Z,4.55
2022-10-09T22:07:13.414Z,4.13
2022-10-09T22:09:39.949Z,3.70
2022-10-09T22:12:06.529Z,4.82
2022-10-09T22:14:33.104Z,4.05
2022-10-09T22:16:59.629Z,4.82
2022-10-09T22:19:26.333Z,4.50
2022-10-09T22:21:52.876Z,3.97
2022-10-09T22:24:19.486Z,3.85
2022-10-09T22:26:46.054Z,5.80
2022-10-09T22:29:12.586Z,5.07
2022-10-09T22:31:39.164Z,4.38
2022-10-09T22:34:05.793Z,5.15
2022-10-09T22:36:33.971Z,4.22
2022-10-09T22:39:04.362Z,3.17
2022-10-09T22:41:31.307Z,3.10
2022-10-09T22:43:59.809Z,4.85
2022-10-09T22:46:44.945Z,3.35
2022-10-09T22:49:14.916Z,5.25
2022-10-09T22:51:41.671Z,2.95
2022-10-09T22:54:08.419Z,2.80
2022-10-09T22:56:38.380Z,3.47
2022-10-09T22:59:07.551Z,5.32
2022-10-09T23:01:39.481Z,3.78
2022-10-09T23:04:08.637Z,2.15
2022-10-09T23:06:35.179Z,2.33
2022-10-09T23:09:05.273Z,2.60
2022-10-09T23:11:31.811Z,2.92
2022-10-09T23:13:59.952Z,3.78
2022-10-09T23:16:29.029Z,3.08
2022-10-09T23:18:57.917Z,3.25
2022-10-09T23:21:24.978Z,3.83
2022-10-09T23:23:53.199Z,3.10
2022-10-09T23:26:26.522Z,2.22
2022-10-09T23:28:58.814Z,2.95
2022-10-09T23:31:26.725Z,4.90
2022-10-09T23:33:53.360Z,3.40
2022-10-09T23:36:21.995Z,2.53
2022-10-09T23:38:48.633Z,3.75
2022-10-09T23:41:19.086Z,3.65
2022-10-09T23:43:47.179Z,3.28
2022-10-09T23:46:17.335Z,2.72
2022-10-09T23:48:44.361Z,3.72
2022-10-09T23:51:11.731Z,2.22
2022-10-09T23:53:38.312Z,2.50
2022-10-09T23:56:21.527Z,3.10
2022-10-09T23:58:48.636Z,3.47
